createdAt,value
2023-02-16T00:02:13.297Z,71.78
2023-02-16T00:04:41.734Z,71.80
2023-02-16T00:07:10.379Z,71.73
2023-02-16T00:09:38.376Z,71.57
2023-02-16T00:12:16.368Z,71.49
2023-02-16T00:14:44.326Z,71.51
2023-02-16T00:17:12.591Z,71.52
2023-02-16T00:19:41.525Z,71.49
2023-02-16T00:22:10.623Z,71.44
2023-02-16T00:24:39.441Z,71.42
2023-02-16T00:27:15.846Z,71.32
2023-02-16T00:29:45.828Z,71.21
2023-02-16T00:32:14.084Z,70.96
2023-02-16T00:34:42.949Z,70.72
2023-02-16T00:37:12.628Z,70.67
2023-02-16T00:39:41.682Z,70.61
2023-02-16T00:42:17.382Z,70.53
2023-02-16T00:44:48.479Z,70.51
2023-02-16T00:47:28.610Z,70.45
2023-02-16T00:49:56.585Z,70.37
2023-02-16T00:52:38.414Z,70.29
2023-02-16T00:55:08.847Z,70.20
2023-02-16T00:57:39.269Z,70.14
2023-02-16T01:00:13.454Z,70.05
2023-02-16T01:02:43.284Z,69.96
2023-02-16T01:05:12.165Z,69.74
2023-02-16T01:07:40.256Z,69.62
2023-02-16T01:10:08.752Z,69.49
2023-02-16T01:12:36.883Z,69.44
2023-02-16T01:15:06.790Z,69.30
2023-02-16T01:17:35.420Z,69.21
2023-02-16T01:20:03.853Z,69.15
2023-02-16T01:22:31.825Z,69.09
2023-02-16T01:24:59.749Z,69.09
2023-02-16T01:27:27.650Z,69.12
2023-02-16T01:29:55.711Z,69.03
2023-02-16T01:32:23.823Z,68.94
2023-02-16T01:34:51.877Z,68.90
2023-02-16T01:37:19.915Z,68.78
2023-02-16T01:39:48.329Z,68.75
2023-02-16T01:42:37.855Z,68.76
2023-02-16T01:45:11.708Z,68.66
2023-02-16T01:47:42.849Z,68.65
2023-02-16T01:50:17.404Z,68.58
2023-02-16T01:52:50.553Z,68.40
2023-02-16T01:55:22.552Z,68.29
2023-02-16T01:57:55.246Z,68.30
2023-02-16T02:00:32.280Z,68.25
2023-02-16T02:03:01.811Z,68.27
2023-02-16T02:05:31.646Z,68.26
2023-02-16T02:08:05.709Z,68.14
2023-02-16T02:10:36.753Z,67.96
2023-02-16T02:13:11.914Z,67.80
2023-02-16T02:15:40.082Z,67.66
2023-02-16T02:18:08.353Z,67.59
2023-02-16T02:20:36.370Z,67.47
2023-02-16T02:23:16.212Z,67.36
2023-02-16T02:25:53.401Z,67.09
2023-02-16T02:28:24.756Z,66.81
2023-02-16T02:31:01.511Z,66.68
2023-02-16T02:33:29.769Z,66.64
2023-02-16T02:36:11.998Z,66.55
2023-02-16T02:38:45.999Z,66.24
2023-02-16T02:41:26.936Z,66.11
2023-02-16T02:43:58.494Z,65.83
2023-02-16T02:46:29.543Z,65.56
2023-02-16T02:48:58.697Z,65.56
2023-02-16T02:51:26.838Z,65.46
2023-02-16T02:53:56.861Z,65.39
2023-02-16T02:56:25.232Z,65.23
2023-02-16T02:58:56.105Z,65.09
2023-02-16T03:01:24.576Z,65.20
2023-02-16T03:03:55.313Z,65.27
2023-02-16T03:06:35.023Z,65.16
2023-02-16T03:09:08.473Z,65.02
2023-02-16T03:11:36.648Z,64.75
2023-02-16T03:14:04.810Z,64.85
2023-02-16T03:16:48.307Z,64.80
2023-02-16T03:19:18.721Z,64.69
2023-02-16T03:21:46.690Z,64.62
2023-02-16T03:24:19.564Z,64.56
2023-02-16T03:26:48.916Z,64.54
2023-02-16T03:29:17.407Z,64.51
2023-02-16T03:31:46.421Z,64.42
2023-02-16T03:34:16.396Z,64.04
2023-02-16T03:36:46.807Z,64.05
2023-02-16T03:39:14.776Z,64.12
2023-02-16T03:41:46.042Z,64.27
2023-02-16T03:44:14.001Z,64.36
2023-02-16T03:46:42.446Z,64.44
2023-02-16T03:49:10.509Z,64.55
2023-02-16T03:51:38.419Z,64.64
2023-02-16T03:54:06.485Z,64.75
2023-02-16T03:56:34.632Z,64.86
2023-02-16T03:59:02.797Z,64.95
2023-02-16T04:01:31.119Z,65.02
2023-02-16T04:04:00.257Z,65.12
2023-02-16T04:06:30.166Z,65.23
2023-02-16T04:08:58.143Z,65.39
2023-02-16T04:11:26.462Z,65.48
2023-02-16T04:13:54.986Z,65.60
2023-02-16T04:16:22.966Z,65.70
2023-02-16T04:18:51.103Z,65.78
2023-02-16T04:21:19.106Z,65.86
2023-02-16T04:23:47.071Z,65.93
2023-02-16T04:26:15.078Z,65.99
2023-02-16T04:28:43.680Z,66.06
2023-02-16T04:31:11.787Z,66.11
2023-02-16T04:33:39.831Z,66.15
2023-02-16T04:36:08.223Z,66.21
2023-02-16T04:38:36.436Z,66.25
2023-02-16T04:41:04.708Z,66.30
2023-02-16T04:43:33.084Z,66.35
2023-02-16T04:46:01.080Z,66.37
2023-02-16T04:48:29.057Z,66.41
2023-02-16T04:50:57.544Z,66.44
2023-02-16T04:53:25.491Z,66.48
2023-02-16T04:55:53.466Z,66.53
2023-02-16T04:58:21.448Z,66.57
2023-02-16T05:00:49.450Z,66.62
2023-02-16T05:03:17.593Z,66.69
2023-02-16T05:05:45.665Z,66.76
2023-02-16T05:08:13.677Z,66.82
2023-02-16T05:10:42.461Z,66.94
2023-02-16T05:13:11.332Z,67.04
2023-02-16T05:15:39.711Z,67.13
2023-02-16T05:18:07.871Z,67.17
2023-02-16T05:20:35.810Z,67.25
2023-02-16T05:23:03.896Z,67.32
2023-02-16T05:25:31.896Z,67.39
2023-02-16T05:28:00.184Z,67.47
2023-02-16T05:30:28.336Z,67.46
2023-02-16T05:32:56.381Z,67.44
2023-02-16T05:35:24.399Z,67.40
2023-02-16T05:37:52.898Z,67.39
2023-02-16T05:40:20.869Z,67.40
2023-02-16T05:42:55.235Z,67.43
2023-02-16T05:45:23.292Z,67.45
2023-02-16T05:47:51.732Z,67.48
2023-02-16T05:50:20.950Z,67.54
2023-02-16T05:52:48.892Z,67.57
2023-02-16T05:55:17.185Z,67.64
2023-02-16T05:57:45.207Z,67.65
2023-02-16T06:00:13.701Z,67.66
2023-02-16T06:02:41.661Z,67.68
2023-02-16T06:05:10.122Z,67.62
2023-02-16T06:07:38.028Z,67.54
2023-02-16T06:10:07.423Z,67.44
2023-02-16T06:12:35.564Z,67.24
2023-02-16T06:15:04.453Z,67.13
2023-02-16T06:17:32.460Z,67.01
2023-02-16T06:20:00.533Z,66.98
2023-02-16T06:22:28.755Z,66.97
2023-02-16T06:24:57.699Z,66.88
2023-02-16T06:27:25.822Z,66.81
2023-02-16T06:29:53.964Z,66.82
2023-02-16T06:32:22.107Z,66.82
2023-02-16T06:34:50.603Z,66.78
2023-02-16T06:37:18.838Z,66.76
2023-02-16T06:39:46.872Z,66.74
2023-02-16T06:42:14.966Z,66.66
2023-02-16T06:44:42.969Z,66.55
2023-02-16T06:47:11.549Z,66.47
2023-02-16T06:49:39.828Z,66.46
2023-02-16T06:52:08.192Z,66.45
2023-02-16T06:54:36.133Z,66.38
2023-02-16T06:57:04.385Z,66.32
2023-02-16T06:59:32.418Z,66.27
2023-02-16T07:02:00.494Z,66.25
2023-02-16T07:04:28.949Z,66.18
2023-02-16T07:06:57.269Z,66.09
2023-02-16T07:09:25.295Z,66.03
2023-02-16T07:11:53.487Z,66.02
2023-02-16T07:14:21.768Z,66.01
2023-02-16T07:16:49.969Z,65.95
2023-02-16T07:19:18.384Z,65.91
2023-02-16T07:21:49.117Z,65.84
2023-02-16T07:24:17.431Z,65.73
2023-02-16T07:26:45.538Z,65.58
2023-02-16T07:29:14.051Z,65.08
2023-02-16T07:31:42.667Z,63.60
2023-02-16T07:34:11.188Z,60.51
2023-02-16T07:36:39.679Z,56.44
2023-02-16T07:39:07.948Z,52.69
2023-02-16T07:41:36.243Z,49.66
2023-02-16T07:44:04.301Z,46.38
2023-02-16T07:46:33.379Z,43.55
2023-02-16T07:49:01.479Z,41.81
2023-02-16T07:51:30.368Z,40.40
2023-02-16T07:53:58.863Z,38.93
2023-02-16T07:56:29.138Z,37.27
2023-02-16T07:58:57.969Z,35.39
2023-02-16T08:01:26.697Z,33.30
2023-02-16T08:03:54.758Z,31.09
2023-02-16T08:06:23.094Z,29.37
2023-02-16T08:08:51.149Z,28.20
2023-02-16T08:11:39.133Z,27.76
2023-02-16T08:14:07.110Z,27.57
2023-02-16T08:16:35.130Z,27.11
2023-02-16T08:19:03.687Z,26.40
2023-02-16T08:21:33.930Z,25.28
2023-02-16T08:24:03.802Z,24.12
2023-02-16T08:26:39.442Z,23.10
2023-02-16T08:29:08.009Z,22.20
2023-02-16T08:31:36.929Z,21.67
2023-02-16T08:34:07.515Z,20.84
2023-02-16T08:36:37.190Z,19.94
2023-02-16T08:39:07.306Z,19.08
2023-02-16T08:41:37.040Z,18.50
2023-02-16T08:44:06.152Z,17.94
2023-02-16T08:46:35.797Z,17.33
2023-02-16T08:49:04.262Z,17.03
2023-02-16T08:51:34.282Z,16.63
2023-02-16T08:54:05.617Z,15.88
2023-02-16T08:56:34.174Z,15.83
2023-02-16T08:59:04.025Z,15.37
2023-02-16T09:01:32.134Z,15.05
2023-02-16T09:04:00.979Z,14.70
2023-02-16T09:06:29.726Z,14.61
2023-02-16T09:08:58.156Z,14.40
2023-02-16T09:11:26.199Z,13.62
2023-02-16T09:13:54.435Z,13.39
2023-02-16T09:16:23.521Z,13.12
2023-02-16T09:18:52.495Z,12.87
2023-02-16T09:21:22.187Z,12.51
2023-02-16T09:23:50.573Z,12.56
2023-02-16T09:26:20.007Z,13.22
2023-02-16T09:28:48.711Z,13.91
2023-02-16T09:31:25.067Z,14.60
2023-02-16T09:33:54.878Z,15.12
2023-02-16T09:36:24.200Z,15.30
2023-02-16T09:38:53.649Z,15.35
2023-02-16T09:41:32.315Z,15.34
2023-02-16T09:44:03.483Z,15.50
2023-02-16T09:46:32.997Z,15.45
2023-02-16T09:49:02.900Z,15.46
2023-02-16T09:51:39.355Z,15.74
2023-02-16T09:54:16.164Z,16.02
2023-02-16T09:56:49.553Z,16.03
2023-02-16T09:59:36.338Z,16.15
2023-02-16T10:02:22.992Z,15.94
2023-02-16T10:05:12.113Z,15.71
2023-02-16T10:08:01.160Z,15.27
2023-02-16T10:10:40.263Z,14.95
2023-02-16T10:13:13.683Z,14.66
2023-02-16T10:15:44.880Z,14.56
2023-02-16T10:18:16.844Z,14.53
2023-02-16T10:20:47.284Z,14.53
2023-02-16T10:23:45.931Z,14.44
2023-02-16T10:26:16.748Z,14.38
2023-02-16T10:28:46.926Z,14.83
2023-02-16T10:31:34.297Z,14.78
2023-02-16T10:34:15.865Z,14.73
2023-02-16T10:36:49.731Z,14.85
2023-02-16T10:39:47.324Z,14.63
2023-02-16T10:42:38.329Z,14.93
2023-02-16T10:45:15.672Z,14.73
2023-02-16T10:47:46.556Z,15.06
2023-02-16T10:50:22.873Z,15.35
2023-02-16T10:52:52.675Z,15.03
2023-02-16T10:55:20.630Z,15.23
2023-02-16T10:58:11.724Z,15.18
2023-02-16T11:00:59.343Z,14.70
2023-02-16T11:03:30.736Z,14.79
2023-02-16T11:06:12.668Z,15.01
2023-02-16T11:08:48.703Z,15.26
2023-02-16T11:11:17.366Z,15.59
2023-02-16T11:13:50.042Z,16.01
2023-02-16T11:16:23.098Z,16.58
2023-02-16T11:18:59.574Z,17.08
2023-02-16T11:21:43.377Z,17.62
2023-02-16T11:24:31.995Z,17.95
2023-02-16T11:27:18.319Z,18.20
2023-02-16T11:29:46.703Z,18.63
2023-02-16T11:32:17.573Z,19.13
2023-02-16T11:34:54.942Z,19.53
2023-02-16T11:37:28.952Z,19.70
2023-02-16T11:40:00.300Z,20.17
2023-02-16T11:42:34.833Z,20.84
2023-02-16T11:45:04.222Z,21.18
2023-02-16T11:47:34.059Z,21.45
2023-02-16T11:50:23.196Z,21.53
2023-02-16T11:53:11.316Z,21.67
2023-02-16T11:55:41.796Z,21.85
2023-02-16T11:58:28.127Z,22.19
2023-02-16T12:01:08.754Z,22.43
2023-02-16T12:03:57.033Z,22.20
2023-02-16T12:06:31.980Z,22.68
2023-02-16T12:09:02.868Z,23.53
2023-02-16T12:11:31.083Z,24.84
2023-02-16T12:14:02.093Z,26.31
2023-02-16T12:16:49.117Z,27.98
2023-02-16T12:19:32.362Z,29.84
2023-02-16T12:22:09.277Z,31.63
2023-02-16T12:24:56.518Z,33.51
2023-02-16T12:27:29.521Z,35.25
2023-02-16T12:30:02.194Z,36.99
2023-02-16T12:32:33.191Z,38.92
2023-02-16T12:35:07.951Z,40.80
2023-02-16T12:37:36.576Z,42.15
2023-02-16T12:40:13.924Z,43.24
2023-02-16T12:43:00.865Z,43.99
2023-02-16T12:45:32.211Z,44.86
2023-02-16T12:48:19.138Z,45.01
2023-02-16T12:50:49.275Z,46.00
2023-02-16T12:53:27.339Z,46.35
2023-02-16T12:55:57.751Z,47.45
2023-02-16T12:58:30.467Z,47.89
2023-02-16T13:01:06.404Z,48.51
2023-02-16T13:03:38.675Z,49.14
2023-02-16T13:06:29.914Z,49.08
2023-02-16T13:09:25.059Z,49.06
2023-02-16T13:12:00.490Z,49.35
2023-02-16T13:14:34.972Z,49.76
2023-02-16T13:17:04.618Z,49.97
2023-02-16T13:19:32.869Z,50.57
2023-02-16T13:22:19.947Z,50.90
2023-02-16T13:24:57.308Z,51.13
2023-02-16T13:27:32.502Z,51.81
2023-02-16T13:30:12.555Z,52.20
2023-02-16T13:33:00.002Z,52.35
2023-02-16T13:35:37.178Z,51.82
2023-02-16T13:38:06.056Z,51.93
2023-02-16T13:41:00.317Z,52.32
2023-02-16T13:43:37.051Z,52.53
2023-02-16T13:46:08.591Z,52.76
2023-02-16T13:48:49.403Z,53.29
2023-02-16T13:51:22.649Z,53.39
2023-02-16T13:53:53.758Z,53.55
2023-02-16T13:56:47.884Z,53.60
2023-02-16T13:59:21.680Z,53.65
2023-02-16T14:01:51.672Z,53.75
2023-02-16T14:04:26.767Z,54.02
2023-02-16T14:07:01.082Z,54.54
2023-02-16T14:09:29.182Z,54.69
2023-02-16T14:12:17.205Z,54.51
2023-02-16T14:14:52.230Z,54.90
2023-02-16T14:17:20.210Z,55.52
2023-02-16T14:19:48.820Z,56.39
2023-02-16T14:22:19.162Z,56.97
2023-02-16T14:24:55.390Z,57.73
2023-02-16T14:28:01.709Z,57.77
2023-02-16T14:30:35.537Z,57.74
2023-02-16T14:33:15.654Z,57.76
2023-02-16T14:36:01.689Z,58.09
2023-02-16T14:38:37.972Z,58.59
2023-02-16T14:41:11.727Z,58.90
2023-02-16T14:43:45.874Z,58.70
2023-02-16T14:46:23.561Z,58.60
2023-02-16T14:49:30.388Z,58.59
2023-02-16T14:52:28.854Z,59.05
2023-02-16T14:55:23.463Z,59.28
2023-02-16T14:57:57.315Z,59.31
2023-02-16T15:00:33.561Z,59.59
2023-02-16T15:03:03.252Z,59.98
2023-02-16T15:05:36.868Z,60.15
2023-02-16T15:08:14.435Z,60.27
2023-02-16T15:10:44.459Z,60.20
2023-02-16T15:13:23.145Z,60.65
2023-02-16T15:15:53.356Z,61.07
2023-02-16T15:18:27.689Z,61.53
2023-02-16T15:20:57.196Z,61.83
2023-02-16T15:23:30.700Z,62.14
2023-02-16T15:26:00.057Z,62.04
2023-02-16T15:28:31.659Z,62.45
2023-02-16T15:31:01.609Z,62.55
2023-02-16T15:33:32.622Z,62.61
2023-02-16T15:36:01.771Z,63.01
2023-02-16T15:38:31.572Z,63.44
2023-02-16T15:41:01.072Z,63.74
2023-02-16T15:43:41.357Z,63.97
2023-02-16T15:46:35.499Z,63.75
2023-02-16T15:49:42.331Z,63.92
2023-02-16T15:52:16.445Z,64.52
2023-02-16T15:54:45.783Z,64.78
2023-02-16T15:57:36.104Z,65.09
2023-02-16T16:00:22.635Z,65.27
2023-02-16T16:02:53.872Z,65.78
2023-02-16T16:05:30.722Z,66.11
2023-02-16T16:08:00.956Z,66.15
2023-02-16T16:10:36.806Z,66.31
2023-02-16T16:13:08.493Z,66.31
2023-02-16T16:15:40.547Z,66.55
2023-02-16T16:18:27.433Z,66.63
2023-02-16T16:20:59.993Z,67.06
2023-02-16T16:23:28.776Z,67.35
2023-02-16T16:25:57.676Z,67.29
2023-02-16T16:28:28.821Z,67.62
2023-02-16T16:31:07.358Z,68.06
2023-02-16T16:33:59.065Z,68.35
2023-02-16T16:36:46.462Z,68.54
2023-02-16T16:39:17.683Z,68.68
2023-02-16T16:42:00.537Z,68.59
2023-02-16T16:44:36.545Z,68.17
2023-02-16T16:47:31.126Z,68.03
2023-02-16T16:50:01.509Z,68.11
2023-02-16T16:52:49.264Z,67.99
2023-02-16T16:55:21.600Z,67.65
2023-02-16T16:57:50.579Z,67.70
2023-02-16T17:00:19.590Z,67.76
2023-02-16T17:02:49.055Z,68.68
2023-02-16T17:05:18.376Z,68.93
2023-02-16T17:07:46.503Z,68.96
2023-02-16T17:10:15.602Z,68.89
2023-02-16T17:12:44.193Z,68.63
2023-02-16T17:15:22.422Z,68.97
2023-02-16T17:17:50.901Z,69.16
2023-02-16T17:20:19.253Z,69.40
2023-02-16T17:22:47.310Z,69.76
2023-02-16T17:25:15.311Z,70.09
2023-02-16T17:27:43.304Z,70.55
2023-02-16T17:30:12.935Z,70.68
2023-02-16T17:32:41.063Z,70.32
2023-02-16T17:35:08.985Z,70.42
2023-02-16T17:37:37.387Z,70.51
2023-02-16T17:40:10.357Z,70.73
2023-02-16T17:42:38.298Z,70.63
2023-02-16T17:45:06.592Z,70.58
2023-02-16T17:47:34.561Z,70.76
2023-02-16T17:50:03.852Z,70.85
2023-02-16T17:52:31.786Z,70.77
2023-02-16T17:54:59.833Z,70.94
2023-02-16T17:57:28.197Z,70.70
2023-02-16T17:59:57.006Z,70.98
2023-02-16T18:02:24.991Z,71.06
2023-02-16T18:04:54.430Z,70.90
2023-02-16T18:07:23.107Z,71.22
2023-02-16T18:09:51.081Z,71.34
2023-02-16T18:12:20.223Z,71.55
2023-02-16T18:14:48.207Z,71.64
2023-02-16T18:17:16.449Z,71.54
2023-02-16T18:19:44.628Z,71.49
2023-02-16T18:22:12.796Z,71.55
2023-02-16T18:24:41.334Z,71.30
2023-02-16T18:27:10.444Z,71.28
2023-02-16T18:29:38.602Z,71.48
2023-02-16T18:32:06.993Z,71.34
2023-02-16T18:34:35.922Z,71.73
2023-02-16T18:37:04.237Z,71.92
2023-02-16T18:39:32.309Z,71.92
2023-02-16T18:42:00.471Z,72.36
2023-02-16T18:44:28.508Z,72.32
2023-02-16T18:46:57.895Z,72.13
2023-02-16T18:49:25.930Z,72.43
2023-02-16T18:51:53.960Z,72.85
2023-02-16T18:54:22.234Z,72.70
2023-02-16T18:56:50.894Z,72.94
2023-02-16T18:59:18.989Z,73.20
2023-02-16T19:01:47.031Z,73.28
2023-02-16T19:04:17.170Z,73.64
2023-02-16T19:06:45.160Z,73.88
2023-02-16T19:09:13.122Z,74.21
2023-02-16T19:11:41.181Z,74.60
2023-02-16T19:14:09.882Z,74.49
2023-02-16T19:16:38.596Z,74.07
2023-02-16T19:19:06.981Z,74.30
2023-02-16T19:21:35.479Z,74.61
2023-02-16T19:24:04.569Z,74.47
2023-02-16T19:26:32.839Z,74.56
2023-02-16T19:29:01.975Z,74.79
2023-02-16T19:31:31.022Z,74.95
2023-02-16T19:34:00.193Z,75.03
2023-02-16T19:36:29.016Z,75.20
2023-02-16T19:38:57.004Z,75.59
2023-02-16T19:41:31.403Z,75.95
2023-02-16T19:44:00.580Z,75.85
2023-02-16T19:46:28.755Z,75.90
2023-02-16T19:48:57.916Z,75.84
2023-02-16T19:51:27.007Z,75.68
2023-02-16T19:53:55.112Z,75.44
2023-02-16T19:56:25.057Z,75.75
2023-02-16T19:58:53.442Z,76.09
2023-02-16T20:01:23.360Z,76.45
2023-02-16T20:03:52.425Z,76.95
2023-02-16T20:06:21.550Z,77.19
2023-02-16T20:08:50.734Z,76.80
2023-02-16T20:11:19.860Z,76.71
2023-02-16T20:13:48.993Z,76.97
2023-02-16T20:16:17.607Z,76.83
2023-02-16T20:18:46.465Z,77.13
2023-02-16T20:21:19.020Z,77.60
2023-02-16T20:23:48.775Z,77.90
2023-02-16T20:26:21.168Z,77.80
2023-02-16T20:28:50.699Z,77.49
2023-02-16T20:31:21.752Z,77.35
2023-02-16T20:33:50.821Z,77.08
2023-02-16T20:36:19.318Z,76.87
2023-02-16T20:38:47.602Z,76.61
2023-02-16T20:41:16.319Z,76.30
2023-02-16T20:43:44.611Z,76.02
2023-02-16T20:46:13.468Z,75.70
2023-02-16T20:48:41.816Z,75.34
2023-02-16T20:51:11.350Z,75.20
2023-02-16T20:53:39.625Z,75.07
2023-02-16T20:56:13.225Z,74.84
2023-02-16T20:58:41.843Z,74.31
2023-02-16T21:01:14.248Z,73.37
2023-02-16T21:03:42.607Z,72.53
2023-02-16T21:06:10.767Z,71.48
2023-02-16T21:08:39.259Z,70.14
2023-02-16T21:11:07.306Z,69.50
2023-02-16T21:13:35.576Z,69.40
2023-02-16T21:16:04.084Z,68.97
2023-02-16T21:18:32.882Z,68.85
2023-02-16T21:21:01.090Z,68.91
2023-02-16T21:23:30.155Z,69.03
2023-02-16T21:26:02.899Z,69.06
2023-02-16T21:28:31.293Z,68.91
2023-02-16T21:31:03.921Z,68.98
2023-02-16T21:33:32.035Z,69.24
2023-02-16T21:36:20.567Z,69.50
2023-02-16T21:38:48.759Z,69.55
2023-02-16T21:41:16.849Z,69.32
2023-02-16T21:43:46.924Z,68.82
2023-02-16T21:46:15.124Z,68.49
2023-02-16T21:48:43.013Z,67.91
2023-02-16T21:51:12.263Z,67.38
2023-02-16T21:53:40.364Z,66.96
2023-02-16T21:56:12.873Z,66.31
2023-02-16T21:58:40.921Z,65.57
2023-02-16T22:01:08.889Z,65.26
2023-02-16T22:03:37.188Z,65.14
2023-02-16T22:06:06.298Z,65.05
2023-02-16T22:08:35.443Z,64.43
2023-02-16T22:11:13.134Z,64.41
2023-02-16T22:13:41.378Z,64.43
2023-02-16T22:16:29.763Z,64.12
2023-02-16T22:19:01.606Z,63.87
2023-02-16T22:21:30.122Z,63.63
2023-02-16T22:23:58.711Z,63.10
2023-02-16T22:26:31.821Z,62.91
2023-02-16T22:29:02.511Z,62.84
2023-02-16T22:31:30.669Z,62.88
2023-02-16T22:34:04.143Z,62.88
2023-02-16T22:36:33.157Z,62.86
2023-02-16T22:39:01.561Z,62.93
2023-02-16T22:41:29.978Z,62.85
2023-02-16T22:43:58.120Z,62.69
2023-02-16T22:46:26.683Z,62.51
2023-02-16T22:48:55.945Z,62.29
2023-02-16T22:51:24.513Z,61.72
2023-02-16T22:53:52.528Z,61.62
2023-02-16T22:56:20.708Z,61.54
2023-02-16T22:58:48.689Z,61.38
2023-02-16T23:01:18.637Z,61.39
2023-02-16T23:03:48.245Z,61.29
2023-02-16T23:06:18.100Z,61.16
2023-02-16T23:08:46.867Z,61.08
2023-02-16T23:11:15.204Z,60.84
2023-02-16T23:13:43.172Z,60.88
2023-02-16T23:16:12.618Z,60.82
2023-02-16T23:18:42.379Z,60.76
2023-02-16T23:21:14.311Z,60.75
2023-02-16T23:23:42.873Z,60.59
2023-02-16T23:26:11.113Z,60.23
2023-02-16T23:28:40.596Z,60.13
2023-02-16T23:31:09.718Z,60.02
2023-02-16T23:33:39.113Z,59.98
2023-02-16T23:36:07.544Z,60.04
2023-02-16T23:38:35.845Z,60.00
2023-02-16T23:41:08.642Z,59.77
2023-02-16T23:43:37.264Z,59.56
2023-02-16T23:46:05.983Z,59.60
2023-02-16T23:48:34.680Z,59.55
2023-02-16T23:51:03.178Z,59.37
2023-02-16T23:53:31.232Z,59.21
2023-02-16T23:56:00.134Z,59.18
2023-02-16T23:58:29.620Z,59.04
